sensor_id;sensor_type;location;lat;lon;timestamp;temperature;humidity
49711;DHT22;35602;44.534;18.696;2022-09-28T00:03:09;21.60;65.50
49711;DHT22;35602;44.534;18.696;2022-09-28T00:08:10;21.60;65.60
49711;DHT22;35602;44.534;18.696;2022-09-28T00:13:11;21.60;65.50
49711;DHT22;35602;44.534;18.696;2022-09-28T00:18:11;21.70;65.50
49711;DHT22;35602;44.534;18.696;2022-09-28T00:23:14;21.60;65.50
49711;DHT22;35602;44.534;18.696;2022-09-28T00:28:15;21.60;65.50
49711;DHT22;35602;44.534;18.696;2022-09-28T00:33:16;21.60;65.50
49711;DHT22;35602;44.534;18.696;2022-09-28T00:38:17;21.60;65.40
49711;DHT22;35602;44.534;18.696;2022-09-28T00:43:20;21.60;65.40
49711;DHT22;35602;44.534;18.696;2022-09-28T00:48:22;21.60;65.40
49711;DHT22;35602;44.534;18.696;2022-09-28T00:53:26;21.60;65.40
49711;DHT22;35602;44.534;18.696;2022-09-28T00:58:34;21.60;65.40
49711;DHT22;35602;44.534;18.696;2022-09-28T01:03:37;21.60;65.40
49711;DHT22;35602;44.534;18.696;2022-09-28T01:08:38;21.60;65.40
49711;DHT22;35602;44.534;18.696;2022-09-28T01:13:40;21.60;65.40
49711;DHT22;35602;44.534;18.696;2022-09-28T01:19:06;21.60;65.40
49711;DHT22;35602;44.534;18.696;2022-09-28T01:24:26;21.60;65.30
49711;DHT22;35602;44.534;18.696;2022-09-28T01:30:16;21.60;65.30
49711;DHT22;35602;44.534;18.696;2022-09-28T01:35:21;21.60;65.30
49711;DHT22;35602;44.534;18.696;2022-09-28T01:40:25;21.60;65.30
49711;DHT22;35602;44.534;18.696;2022-09-28T01:45:30;21.60;65.30
49711;DHT22;35602;44.534;18.696;2022-09-28T01:50:36;21.60;65.20
49711;DHT22;35602;44.534;18.696;2022-09-28T01:55:42;21.60;65.20
49711;DHT22;35602;44.534;18.696;2022-09-28T02:00:48;21.60;65.20
49711;DHT22;35602;44.534;18.696;2022-09-28T02:05:59;21.60;65.20
49711;DHT22;35602;44.534;18.696;2022-09-28T02:11:10;21.60;65.20
49711;DHT22;35602;44.534;18.696;2022-09-28T02:28:10;21.60;65.10
49711;DHT22;35602;44.534;18.696;2022-09-28T02:33:21;21.60;65.10
49711;DHT22;35602;44.534;18.696;2022-09-28T02:38:22;21.60;65.10
49711;DHT22;35602;44.534;18.696;2022-09-28T02:43:38;21.60;65.10
49711;DHT22;35602;44.534;18.696;2022-09-28T02:50:33;21.60;65.00
49711;DHT22;35602;44.534;18.696;2022-09-28T02:56:54;21.60;65.00
49711;DHT22;35602;44.534;18.696;2022-09-28T03:02:26;21.60;65.00
49711;DHT22;35602;44.534;18.696;2022-09-28T03:07:38;21.60;65.00
49711;DHT22;35602;44.534;18.696;2022-09-28T03:12:43;21.60;64.90
49711;DHT22;35602;44.534;18.696;2022-09-28T03:17:45;21.60;64.90
49711;DHT22;35602;44.534;18.696;2022-09-28T03:22:46;21.60;64.80
49711;DHT22;35602;44.534;18.696;2022-09-28T03:27:46;21.60;64.80
49711;DHT22;35602;44.534;18.696;2022-09-28T03:32:58;21.50;64.80
49711;DHT22;35602;44.534;18.696;2022-09-28T03:37:59;21.60;64.80
49711;DHT22;35602;44.534;18.696;2022-09-28T03:43:00;21.60;64.80
49711;DHT22;35602;44.534;18.696;2022-09-28T03:48:01;21.50;64.70
49711;DHT22;35602;44.534;18.696;2022-09-28T03:53:02;21.60;64.70
49711;DHT22;35602;44.534;18.696;2022-09-28T03:58:03;21.50;64.60
49711;DHT22;35602;44.534;18.696;2022-09-28T04:03:04;21.50;64.60
49711;DHT22;35602;44.534;18.696;2022-09-28T04:08:05;21.50;64.50
49711;DHT22;35602;44.534;18.696;2022-09-28T04:13:05;21.50;64.50
49711;DHT22;35602;44.534;18.696;2022-09-28T04:18:10;21.50;64.50
49711;DHT22;35602;44.534;18.696;2022-09-28T04:23:11;21.50;64.50
49711;DHT22;35602;44.534;18.696;2022-09-28T04:28:12;21.50;64.50
49711;DHT22;35602;44.534;18.696;2022-09-28T04:33:31;21.50;64.50
49711;DHT22;35602;44.534;18.696;2022-09-28T04:38:33;21.50;64.40
49711;DHT22;35602;44.534;18.696;2022-09-28T04:43:34;21.50;64.40
49711;DHT22;35602;44.534;18.696;2022-09-28T04:48:37;21.50;64.40
49711;DHT22;35602;44.534;18.696;2022-09-28T04:53:38;21.50;64.30
49711;DHT22;35602;44.534;18.696;2022-09-28T04:58:40;21.50;64.20
49711;DHT22;35602;44.534;18.696;2022-09-28T05:03:42;21.50;64.20
49711;DHT22;35602;44.534;18.696;2022-09-28T05:08:43;21.50;64.20
49711;DHT22;35602;44.534;18.696;2022-09-28T05:13:46;21.50;64.20
49711;DHT22;35602;44.534;18.696;2022-09-28T05:18:47;21.50;64.20
49711;DHT22;35602;44.534;18.696;2022-09-28T05:23:48;21.50;64.10
49711;DHT22;35602;44.534;18.696;2022-09-28T05:28:49;21.50;64.00
49711;DHT22;35602;44.534;18.696;2022-09-28T05:33:50;21.50;64.00
49711;DHT22;35602;44.534;18.696;2022-09-28T05:38:51;21.50;64.00
49711;DHT22;35602;44.534;18.696;2022-09-28T05:43:52;21.50;63.90
49711;DHT22;35602;44.534;18.696;2022-09-28T05:48:54;21.50;63.80
49711;DHT22;35602;44.534;18.696;2022-09-28T05:53:55;21.60;64.20
49711;DHT22;35602;44.534;18.696;2022-09-28T05:58:57;21.60;63.70
49711;DHT22;35602;44.534;18.696;2022-09-28T06:03:58;21.60;63.50
49711;DHT22;35602;44.534;18.696;2022-09-28T06:08:58;21.70;63.30
49711;DHT22;35602;44.534;18.696;2022-09-28T06:13:59;21.60;63.10
49711;DHT22;35602;44.534;18.696;2022-09-28T06:19:00;21.60;62.90
49711;DHT22;35602;44.534;18.696;2022-09-28T06:24:02;21.60;62.70
49711;DHT22;35602;44.534;18.696;2022-09-28T06:29:03;21.60;62.60
49711;DHT22;35602;44.534;18.696;2022-09-28T06:34:07;21.60;62.20
49711;DHT22;35602;44.534;18.696;2022-09-28T06:39:09;21.60;62.00
49711;DHT22;35602;44.534;18.696;2022-09-28T06:44:09;21.70;62.10
49711;DHT22;35602;44.534;18.696;2022-09-28T06:49:10;21.70;62.10
49711;DHT22;35602;44.534;18.696;2022-09-28T06:54:11;21.70;62.00
49711;DHT22;35602;44.534;18.696;2022-09-28T06:59:15;21.70;62.00
49711;DHT22;35602;44.534;18.696;2022-09-28T07:04:16;21.70;62.10
49711;DHT22;35602;44.534;18.696;2022-09-28T07:09:16;21.70;62.10
49711;DHT22;35602;44.534;18.696;2022-09-28T07:14:17;21.70;62.10
49711;DHT22;35602;44.534;18.696;2022-09-28T07:19:20;21.70;62.10
49711;DHT22;35602;44.534;18.696;2022-09-28T07:24:21;21.80;62.20
49711;DHT22;35602;44.534;18.696;2022-09-28T07:29:22;21.80;62.20
49711;DHT22;35602;44.534;18.696;2022-09-28T07:34:23;21.80;62.20
49711;DHT22;35602;44.534;18.696;2022-09-28T07:39:24;21.80;62.20
49711;DHT22;35602;44.534;18.696;2022-09-28T07:44:25;21.80;62.10
49711;DHT22;35602;44.534;18.696;2022-09-28T07:49:26;21.90;62.10
49711;DHT22;35602;44.534;18.696;2022-09-28T07:54:27;21.90;62.10
49711;DHT22;35602;44.534;18.696;2022-09-28T07:59:27;21.90;62.10
49711;DHT22;35602;44.534;18.696;2022-09-28T08:04:28;21.90;62.10
49711;DHT22;35602;44.534;18.696;2022-09-28T08:09:29;21.90;62.30
49711;DHT22;35602;44.534;18.696;2022-09-28T08:14:31;21.90;62.20
49711;DHT22;35602;44.534;18.696;2022-09-28T08:19:34;22.00;62.30
49711;DHT22;35602;44.534;18.696;2022-09-28T08:24:53;22.00;62.40
49711;DHT22;35602;44.534;18.696;2022-09-28T08:29:54;22.10;62.50
49711;DHT22;35602;44.534;18.696;2022-09-28T08:34:55;22.10;62.40
49711;DHT22;35602;44.534;18.696;2022-09-28T08:39:56;22.10;62.20
49711;DHT22;35602;44.534;18.696;2022-09-28T08:45:04;22.20;62.40
49711;DHT22;35602;44.534;18.696;2022-09-28T08:50:12;22.20;62.40
49711;DHT22;35602;44.534;18.696;2022-09-28T08:55:31;22.20;62.40
49711;DHT22;35602;44.534;18.696;2022-09-28T09:00:41;22.20;62.60
49711;DHT22;35602;44.534;18.696;2022-09-28T09:06:23;22.20;62.50
49711;DHT22;35602;44.534;18.696;2022-09-28T09:13:20;22.20;62.60
49711;DHT22;35602;44.534;18.696;2022-09-28T09:18:36;22.30;62.60
49711;DHT22;35602;44.534;18.696;2022-09-28T09:23:51;22.30;62.60
49711;DHT22;35602;44.534;18.696;2022-09-28T09:41:50;22.30;62.30
49711;DHT22;35602;44.534;18.696;2022-09-28T09:47:03;22.20;62.30
49711;DHT22;35602;44.534;18.696;2022-09-28T09:52:19;22.20;62.30
49711;DHT22;35602;44.534;18.696;2022-09-28T09:57:30;22.20;62.30
49711;DHT22;35602;44.534;18.696;2022-09-28T10:02:33;22.20;62.20
49711;DHT22;35602;44.534;18.696;2022-09-28T10:13:26;22.30;62.80
49711;DHT22;35602;44.534;18.696;2022-09-28T10:18:28;22.30;62.90
49711;DHT22;35602;44.534;18.696;2022-09-28T10:23:35;22.30;63.00
49711;DHT22;35602;44.534;18.696;2022-09-28T10:28:54;22.30;63.10
49711;DHT22;35602;44.534;18.696;2022-09-28T10:33:57;22.30;63.10
49711;DHT22;35602;44.534;18.696;2022-09-28T10:38:58;22.40;63.30
49711;DHT22;35602;44.534;18.696;2022-09-28T10:44:01;22.40;63.30
49711;DHT22;35602;44.534;18.696;2022-09-28T10:49:14;22.40;63.40
49711;DHT22;35602;44.534;18.696;2022-09-28T10:54:21;22.40;63.50
49711;DHT22;35602;44.534;18.696;2022-09-28T10:59:55;22.50;63.70
49711;DHT22;35602;44.534;18.696;2022-09-28T11:04:58;22.50;63.80
49711;DHT22;35602;44.534;18.696;2022-09-28T11:10:00;22.50;63.80
49711;DHT22;35602;44.534;18.696;2022-09-28T11:15:04;22.50;63.90
49711;DHT22;35602;44.534;18.696;2022-09-28T11:23:37;22.50;64.10
49711;DHT22;35602;44.534;18.696;2022-09-28T11:28:40;22.50;63.80
49711;DHT22;35602;44.534;18.696;2022-09-28T11:33:45;22.40;63.80
49711;DHT22;35602;44.534;18.696;2022-09-28T11:39:07;22.40;63.70
49711;DHT22;35602;44.534;18.696;2022-09-28T11:51:10;22.40;63.80
49711;DHT22;35602;44.534;18.696;2022-09-28T11:56:43;22.40;63.50
49711;DHT22;35602;44.534;18.696;2022-09-28T12:02:00;22.40;63.90
49711;DHT22;35602;44.534;18.696;2022-09-28T12:07:16;22.40;63.00
49711;DHT22;35602;44.534;18.696;2022-09-28T12:12:36;22.40;62.90
49711;DHT22;35602;44.534;18.696;2022-09-28T12:17:42;22.40;62.70
49711;DHT22;35602;44.534;18.696;2022-09-28T12:23:02;22.50;62.70
49711;DHT22;35602;44.534;18.696;2022-09-28T12:28:12;22.50;62.50
49711;DHT22;35602;44.534;18.696;2022-09-28T12:33:16;22.50;63.20
49711;DHT22;35602;44.534;18.696;2022-09-28T12:38:49;22.50;62.60
49711;DHT22;35602;44.534;18.696;2022-09-28T12:44:32;22.50;62.50
49711;DHT22;35602;44.534;18.696;2022-09-28T12:57:04;22.50;62.50
49711;DHT22;35602;44.534;18.696;2022-09-28T13:05:31;22.50;61.90
49711;DHT22;35602;44.534;18.696;2022-09-28T13:10:58;22.50;62.00
49711;DHT22;35602;44.534;18.696;2022-09-28T13:16:49;22.50;62.00
49711;DHT22;35602;44.534;18.696;2022-09-28T13:23:28;22.60;62.00
49711;DHT22;35602;44.534;18.696;2022-09-28T13:28:31;22.60;62.00
49711;DHT22;35602;44.534;18.696;2022-09-28T13:33:39;22.60;61.90
49711;DHT22;35602;44.534;18.696;2022-09-28T13:38:47;22.60;61.80
49711;DHT22;35602;44.534;18.696;2022-09-28T13:44:22;22.60;61.60
49711;DHT22;35602;44.534;18.696;2022-09-28T13:53:43;22.60;61.70
49711;DHT22;35602;44.534;18.696;2022-09-28T14:13:08;22.50;61.50
49711;DHT22;35602;44.534;18.696;2022-09-28T14:18:43;22.50;61.50
49711;DHT22;35602;44.534;18.696;2022-09-28T14:32:55;22.50;61.90
49711;DHT22;35602;44.534;18.696;2022-09-28T14:38:04;22.40;62.10
49711;DHT22;35602;44.534;18.696;2022-09-28T14:49:45;22.40;62.50
49711;DHT22;35602;44.534;18.696;2022-09-28T14:54:52;22.30;62.60
49711;DHT22;35602;44.534;18.696;2022-09-28T14:59:54;22.30;62.80
49711;DHT22;35602;44.534;18.696;2022-09-28T15:06:21;22.30;62.90
49711;DHT22;35602;44.534;18.696;2022-09-28T15:11:24;22.20;63.00
49711;DHT22;35602;44.534;18.696;2022-09-28T15:16:29;22.20;63.10
49711;DHT22;35602;44.534;18.696;2022-09-28T15:21:35;22.20;63.10
49711;DHT22;35602;44.534;18.696;2022-09-28T15:26:36;22.20;63.20
49711;DHT22;35602;44.534;18.696;2022-09-28T15:31:37;22.20;63.30
49711;DHT22;35602;44.534;18.696;2022-09-28T15:36:40;22.10;63.30
49711;DHT22;35602;44.534;18.696;2022-09-28T15:41:42;22.10;63.40
49711;DHT22;35602;44.534;18.696;2022-09-28T15:46:45;22.10;63.40
49711;DHT22;35602;44.534;18.696;2022-09-28T15:51:54;22.10;63.50
49711;DHT22;35602;44.534;18.696;2022-09-28T15:56:57;22.10;63.60
49711;DHT22;35602;44.534;18.696;2022-09-28T16:02:19;22.10;63.60
49711;DHT22;35602;44.534;18.696;2022-09-28T16:07:51;22.00;63.60
49711;DHT22;35602;44.534;18.696;2022-09-28T16:12:55;22.00;63.70
49711;DHT22;35602;44.534;18.696;2022-09-28T16:18:01;22.00;63.70
49711;DHT22;35602;44.534;18.696;2022-09-28T16:28:54;22.00;63.80
49711;DHT22;35602;44.534;18.696;2022-09-28T16:34:26;22.00;63.80
49711;DHT22;35602;44.534;18.696;2022-09-28T16:39:28;22.00;63.90
49711;DHT22;35602;44.534;18.696;2022-09-28T16:44:28;22.00;63.90
49711;DHT22;35602;44.534;18.696;2022-09-28T16:49:31;22.00;63.90
49711;DHT22;35602;44.534;18.696;2022-09-28T16:54:32;22.00;64.00
49711;DHT22;35602;44.534;18.696;2022-09-28T16:59:52;22.00;64.00
49711;DHT22;35602;44.534;18.696;2022-09-28T17:04:53;22.00;64.00
49711;DHT22;35602;44.534;18.696;2022-09-28T17:09:54;22.00;64.10
49711;DHT22;35602;44.534;18.696;2022-09-28T17:14:55;22.00;64.10
49711;DHT22;35602;44.534;18.696;2022-09-28T17:19:57;21.90;64.10
49711;DHT22;35602;44.534;18.696;2022-09-28T17:24:57;22.00;64.10
49711;DHT22;35602;44.534;18.696;2022-09-28T17:30:00;21.90;64.10
49711;DHT22;35602;44.534;18.696;2022-09-28T17:35:01;21.90;64.10
49711;DHT22;35602;44.534;18.696;2022-09-28T17:45:29;21.90;64.20
49711;DHT22;35602;44.534;18.696;2022-09-28T17:50:32;21.90;64.20
49711;DHT22;35602;44.534;18.696;2022-09-28T17:55:35;21.90;64.30
49711;DHT22;35602;44.534;18.696;2022-09-28T18:00:36;21.90;64.40
49711;DHT22;35602;44.534;18.696;2022-09-28T18:05:37;21.90;64.40
49711;DHT22;35602;44.534;18.696;2022-09-28T18:10:38;21.90;64.40
49711;DHT22;35602;44.534;18.696;2022-09-28T18:15:39;21.90;64.40
49711;DHT22;35602;44.534;18.696;2022-09-28T18:20:40;21.90;64.40
49711;DHT22;35602;44.534;18.696;2022-09-28T18:25:42;21.90;64.40
49711;DHT22;35602;44.534;18.696;2022-09-28T18:30:44;21.90;64.40
49711;DHT22;35602;44.534;18.696;2022-09-28T18:35:54;21.90;64.40
49711;DHT22;35602;44.534;18.696;2022-09-28T18:40:54;21.90;65.00
49711;DHT22;35602;44.534;18.696;2022-09-28T18:45:55;21.90;64.40
49711;DHT22;35602;44.534;18.696;2022-09-28T18:50:56;21.90;64.40
49711;DHT22;35602;44.534;18.696;2022-09-28T18:55:57;21.90;64.40
49711;DHT22;35602;44.534;18.696;2022-09-28T19:00:58;21.90;64.50
49711;DHT22;35602;44.534;18.696;2022-09-28T19:05:59;21.90;64.50
49711;DHT22;35602;44.534;18.696;2022-09-28T19:11:13;21.90;64.60
49711;DHT22;35602;44.534;18.696;2022-09-28T19:16:16;21.90;64.50
49711;DHT22;35602;44.534;18.696;2022-09-28T19:21:18;21.90;64.50
49711;DHT22;35602;44.534;18.696;2022-09-28T19:26:25;21.90;64.60
49711;DHT22;35602;44.534;18.696;2022-09-28T19:31:27;21.90;64.60
49711;DHT22;35602;44.534;18.696;2022-09-28T19:36:29;21.90;65.30
49711;DHT22;35602;44.534;18.696;2022-09-28T19:41:32;21.90;64.60
49711;DHT22;35602;44.534;18.696;2022-09-28T19:46:41;21.90;64.60
49711;DHT22;35602;44.534;18.696;2022-09-28T19:51:42;21.80;64.70
49711;DHT22;35602;44.534;18.696;2022-09-28T19:56:43;21.90;64.70
49711;DHT22;35602;44.534;18.696;2022-09-28T20:01:44;21.80;64.70
49711;DHT22;35602;44.534;18.696;2022-09-28T20:06:45;21.80;64.70
49711;DHT22;35602;44.534;18.696;2022-09-28T20:11:46;21.90;65.40
49711;DHT22;35602;44.534;18.696;2022-09-28T20:16:48;21.80;64.70
49711;DHT22;35602;44.534;18.696;2022-09-28T20:21:49;21.80;64.70
49711;DHT22;35602;44.534;18.696;2022-09-28T20:26:50;21.80;64.70
49711;DHT22;35602;44.534;18.696;2022-09-28T20:31:51;21.80;64.70
49711;DHT22;35602;44.534;18.696;2022-09-28T20:36:52;21.80;64.70
49711;DHT22;35602;44.534;18.696;2022-09-28T20:41:53;21.80;64.70
49711;DHT22;35602;44.534;18.696;2022-09-28T20:46:54;21.80;64.80
49711;DHT22;35602;44.534;18.696;2022-09-28T20:51:55;21.80;64.80
49711;DHT22;35602;44.534;18.696;2022-09-28T20:56:56;21.80;64.80
49711;DHT22;35602;44.534;18.696;2022-09-28T21:01:57;21.80;64.80
49711;DHT22;35602;44.534;18.696;2022-09-28T21:06:58;21.80;64.70
49711;DHT22;35602;44.534;18.696;2022-09-28T21:11:58;21.80;64.70
49711;DHT22;35602;44.534;18.696;2022-09-28T21:16:59;21.80;64.80
49711;DHT22;35602;44.534;18.696;2022-09-28T21:22:00;21.80;64.80
49711;DHT22;35602;44.534;18.696;2022-09-28T21:27:01;21.80;64.70
49711;DHT22;35602;44.534;18.696;2022-09-28T21:32:02;21.80;65.40
49711;DHT22;35602;44.534;18.696;2022-09-28T21:37:02;21.80;64.80
49711;DHT22;35602;44.534;18.696;2022-09-28T21:42:03;21.80;64.70
49711;DHT22;35602;44.534;18.696;2022-09-28T21:47:04;21.80;64.80
49711;DHT22;35602;44.534;18.696;2022-09-28T21:52:05;21.80;64.80
49711;DHT22;35602;44.534;18.696;2022-09-28T21:57:06;21.80;64.80
49711;DHT22;35602;44.534;18.696;2022-09-28T22:02:08;21.80;64.80
49711;DHT22;35602;44.534;18.696;2022-09-28T22:07:09;21.80;64.70
49711;DHT22;35602;44.534;18.696;2022-09-28T22:12:10;21.80;64.80
49711;DHT22;35602;44.534;18.696;2022-09-28T22:17:11;21.80;64.70
49711;DHT22;35602;44.534;18.696;2022-09-28T22:22:12;21.80;64.70
49711;DHT22;35602;44.534;18.696;2022-09-28T22:27:13;21.80;64.70
49711;DHT22;35602;44.534;18.696;2022-09-28T22:32:15;21.80;64.70
49711;DHT22;35602;44.534;18.696;2022-09-28T22:37:15;21.80;64.70
49711;DHT22;35602;44.534;18.696;2022-09-28T22:42:16;21.80;64.70
49711;DHT22;35602;44.534;18.696;2022-09-28T22:47:17;21.80;64.70
49711;DHT22;35602;44.534;18.696;2022-09-28T22:52:18;21.80;64.70
49711;DHT22;35602;44.534;18.696;2022-09-28T22:57:19;21.80;64.70
49711;DHT22;35602;44.534;18.696;2022-09-28T23:02:19;21.80;64.70
49711;DHT22;35602;44.534;18.696;2022-09-28T23:07:20;21.80;64.70
49711;DHT22;35602;44.534;18.696;2022-09-28T23:12:21;21.80;64.80
49711;DHT22;35602;44.534;18.696;2022-09-28T23:17:22;21.80;64.70
49711;DHT22;35602;44.534;18.696;2022-09-28T23:22:23;21.80;64.70
49711;DHT22;35602;44.534;18.696;2022-09-28T23:27:23;21.80;64.70
49711;DHT22;35602;44.534;18.696;2022-09-28T23:32:24;21.80;65.30
49711;DHT22;35602;44.534;18.696;2022-09-28T23:37:25;21.80;64.70
49711;DHT22;35602;44.534;18.696;2022-09-28T23:42:26;21.80;64.70
49711;DHT22;35602;44.534;18.696;2022-09-28T23:47:27;21.80;64.70
49711;DHT22;35602;44.534;18.696;2022-09-28T23:52:28;21.70;64.60
49711;DHT22;35602;44.534;18.696;2022-09-28T23:57:28;21.70;64.60
